Time;durP1;ratioP1;P1;durP2;ratioP2;P2;SDS_P1;SDS_P2;PMS_P1;PMS_P2;Temp;Humidity;BMP_temperature;BMP_pressure;BME280_temperature;BME280_humidity;BME280_pressure;Samples;Min_cycle;Max_cycle;Signal;HPM_P1;HPM_P2
2021/12/03 00:00:26;;;;;;;3.20;2.90;;;8.20;57.50;;;;;;4963823;28;20546;-52
2021/12/03 00:02:52;;;;;;;2.60;2.37;;;8.10;57.30;;;;;;4960962;28;20594;-49
2021/12/03 00:05:17;;;;;;;3.23;2.90;;;8.10;57.10;;;;;;4966596;28;20462;-47
2021/12/03 00:07:43;;;;;;;4.90;2.70;;;7.90;57.30;;;;;;4962821;28;20439;-47
2021/12/03 00:10:11;;;;;;;4.20;3.37;;;7.80;57.70;;;;;;4955154;28;20279;-49
2021/12/03 00:12:38;;;;;;;2.93;2.63;;;7.70;57.80;;;;;;4964805;28;20230;-47
2021/12/03 00:15:06;;;;;;;6.30;2.80;;;7.80;58.40;;;;;;4969969;28;20447;-48
2021/12/03 00:17:31;;;;;;;3.43;3.13;;;7.60;57.80;;;;;;4965038;28;20897;-47
2021/12/03 00:19:57;;;;;;;3.33;2.90;;;7.40;58.50;;;;;;4967121;28;20491;-50
2021/12/03 00:22:23;;;;;;;3.63;3.33;;;7.50;58.50;;;;;;4969032;28;20203;-48
2021/12/03 00:24:49;;;;;;;3.67;3.20;;;7.60;58.40;;;;;;4972304;28;20191;-47
2021/12/03 00:27:14;;;;;;;3.87;3.23;;;7.50;58.30;;;;;;4964841;28;20227;-48
2021/12/03 00:29:40;;;;;;;4.47;3.00;;;7.50;58.40;;;;;;4962464;28;20203;-47
2021/12/03 00:32:06;;;;;;;3.43;3.17;;;7.50;58.40;;;;;;4962184;28;20226;-48
2021/12/03 00:34:32;;;;;;;4.13;3.17;;;7.60;58.20;;;;;;4963492;28;20553;-49
2021/12/03 00:36:57;;;;;;;5.30;3.43;;;7.60;58.10;;;;;;4963775;28;20447;-48
2021/12/03 00:39:23;;;;;;;6.40;3.90;;;7.70;58.00;;;;;;4962742;28;20218;-47
2021/12/03 00:41:55;;;;;;;5.83;3.80;;;7.80;57.90;;;;;;4964804;28;20270;-48
2021/12/03 00:44:23;;;;;;;8.43;3.70;;;7.80;57.60;;;;;;4966156;28;20243;-48
2021/12/03 00:46:49;;;;;;;6.90;4.00;;;7.90;57.60;;;;;;4969457;28;20525;-47
2021/12/03 00:49:15;;;;;;;3.50;3.13;;;7.90;57.40;;;;;;4965110;28;20446;-48
2021/12/03 00:51:40;;;;;;;4.90;3.40;;;8.00;57.20;;;;;;4966963;28;20257;-47
2021/12/03 00:54:06;;;;;;;4.70;3.33;;;8.00;57.00;;;;;;4966423;28;20226;-47
2021/12/03 00:56:32;;;;;;;5.30;3.97;;;8.00;57.00;;;;;;4967041;28;20227;-48
2021/12/03 00:58:58;;;;;;;3.60;3.27;;;8.10;57.00;;;;;;4966297;28;20468;-49
2021/12/03 01:01:23;;;;;;;4.90;3.53;;;8.10;57.00;;;;;;4965267;28;20195;-48
2021/12/03 01:03:49;;;;;;;3.97;3.60;;;8.10;57.00;;;;;;4967342;28;20299;-48
2021/12/03 01:06:15;;;;;;;5.17;4.30;;;8.00;57.20;;;;;;4965781;28;20251;-47
2021/12/03 01:08:40;;;;;;;7.73;3.90;;;8.00;57.30;;;;;;4972475;28;20209;-49
2021/12/03 01:11:09;;;;;;;4.37;3.80;;;8.00;57.20;;;;;;4966684;28;20195;-49
2021/12/03 01:13:37;;;;;;;5.90;3.50;;;8.00;57.50;;;;;;4969453;28;20235;-52
2021/12/03 01:16:03;;;;;;;7.07;4.50;;;7.90;57.70;;;;;;4967052;28;20446;-49
2021/12/03 01:18:29;;;;;;;4.83;3.50;;;7.90;57.70;;;;;;4965867;28;20530;-47
2021/12/03 01:20:54;;;;;;;3.47;3.27;;;7.90;57.90;;;;;;4966865;28;20445;-48
2021/12/03 01:23:20;;;;;;;5.50;4.03;;;7.90;57.80;;;;;;4974019;28;20462;-49
2021/12/03 01:25:46;;;;;;;5.80;3.80;;;7.90;57.80;;;;;;4964219;28;20205;-47
2021/12/03 01:28:12;;;;;;;6.57;4.43;;;7.90;57.80;;;;;;4964289;28;20208;-49
2021/12/03 01:30:39;;;;;;;4.73;3.90;;;7.90;57.90;;;;;;4965179;28;20494;-48
2021/12/03 01:33:06;;;;;;;8.73;4.53;;;8.00;57.80;;;;;;4969541;28;20834;-48
2021/12/03 01:35:32;;;;;;;6.10;4.63;;;8.00;57.70;;;;;;4966395;28;20545;-47
2021/12/03 01:37:58;;;;;;;4.70;4.00;;;8.00;57.80;;;;;;4964251;28;20503;-48
2021/12/03 01:40:27;;;;;;;4.97;3.93;;;7.90;57.90;;;;;;4966141;28;20443;-49
2021/12/03 01:42:53;;;;;;;7.20;4.20;;;7.90;57.80;;;;;;4969999;28;20207;-47
2021/12/03 01:45:23;;;;;;;6.20;5.13;;;7.80;57.80;;;;;;4965010;28;20478;-48
2021/12/03 01:47:50;;;;;;;7.13;4.33;;;7.70;58.00;;;;;;4965892;28;20454;-48
2021/12/03 01:50:16;;;;;;;7.13;5.37;;;7.70;58.10;;;;;;4964930;28;21262;-47
2021/12/03 01:52:42;;;;;;;7.77;4.43;;;7.80;58.10;;;;;;4969255;28;20897;-47
2021/12/03 01:55:12;;;;;;;5.50;4.63;;;7.90;58.10;;;;;;4963419;28;20489;-49
2021/12/03 01:57:38;;;;;;;5.83;4.53;;;7.90;57.90;;;;;;4965151;28;20806;-48
2021/12/03 02:00:12;;;;;;;5.93;4.97;;;7.90;57.70;;;;;;4965066;28;20437;-50
2021/12/03 02:02:37;;;;;;;7.33;4.50;;;7.80;58.00;;;;;;4962500;28;20638;-50
2021/12/03 02:05:03;;;;;;;4.30;3.90;;;7.80;57.80;;;;;;4964670;28;20518;-50
2021/12/03 02:07:29;;;;;;;6.00;4.60;;;7.70;57.60;;;;;;4968117;28;20241;-50
2021/12/03 02:09:55;;;;;;;4.77;4.10;;;7.60;57.70;;;;;;4965885;28;20452;-49
2021/12/03 02:12:20;;;;;;;5.13;4.63;;;7.60;57.80;;;;;;4968423;28;20692;-49
2021/12/03 02:14:46;;;;;;;7.20;4.40;;;7.60;57.80;;;;;;4968523;28;20200;-51
2021/12/03 02:17:12;;;;;;;6.10;4.43;;;7.60;57.80;;;;;;4967662;28;20690;-52
2021/12/03 02:19:38;;;;;;;6.20;4.70;;;7.50;57.80;;;;;;4964342;28;20204;-49
2021/12/03 02:22:04;;;;;;;5.50;4.83;;;7.50;57.90;;;;;;4966411;28;20582;-49
2021/12/03 02:24:30;;;;;;;5.90;5.20;;;7.50;57.90;;;;;;4962275;28;20446;-53
2021/12/03 02:26:55;;;;;;;5.43;4.73;;;7.50;57.70;;;;;;4971367;28;20816;-50
2021/12/03 02:29:21;;;;;;;5.73;4.67;;;7.50;57.60;;;;;;4966997;28;20269;-53
2021/12/03 02:31:47;;;;;;;7.27;4.50;;;7.50;57.60;;;;;;4964465;28;20239;-49
2021/12/03 02:34:12;;;;;;;6.90;5.00;;;7.60;57.30;;;;;;4966565;28;20592;-50
2021/12/03 02:36:38;;;;;;;4.73;4.33;;;7.60;57.10;;;;;;4970764;28;20214;-51
2021/12/03 02:39:04;;;;;;;6.93;4.90;;;7.60;57.20;;;;;;4965580;28;20199;-50
2021/12/03 02:41:30;;;;;;;7.10;4.37;;;7.70;57.20;;;;;;4964562;28;20208;-49
2021/12/03 02:43:56;;;;;;;6.50;4.43;;;7.70;57.10;;;;;;4964058;28;20844;-53
2021/12/03 02:46:22;;;;;;;8.57;5.30;;;7.70;56.90;;;;;;4968043;28;20211;-50
2021/12/03 02:48:47;;;;;;;5.23;4.70;;;7.70;56.90;;;;;;4966833;28;20654;-50
2021/12/03 02:51:13;;;;;;;5.70;4.70;;;7.70;56.80;;;;;;4960406;28;20282;-49
2021/12/03 02:53:39;;;;;;;8.70;5.37;;;7.80;56.80;;;;;;4964747;28;20203;-49
2021/12/03 02:56:06;;;;;;;7.20;4.87;;;7.80;56.70;;;;;;4964706;28;20238;-51
2021/12/03 02:58:32;;;;;;;7.17;5.10;;;7.80;56.80;;;;;;4961221;28;20471;-49
2021/12/03 03:01:00;;;;;;;6.87;5.50;;;7.70;56.80;;;;;;4958824;28;20443;-50
2021/12/03 03:03:26;;;;;;;7.57;6.73;;;7.70;56.90;;;;;;4967085;28;20449;-51
2021/12/03 03:05:54;;;;;;;7.67;6.03;;;7.70;56.80;;;;;;4959850;28;20435;-50
2021/12/03 03:08:19;;;;;;;9.90;7.73;;;7.80;56.80;;;;;;4972149;28;20656;-49
2021/12/03 03:10:45;;;;;;;9.83;6.93;;;7.70;56.60;;;;;;4957904;28;20430;-49
2021/12/03 03:13:12;;;;;;;7.53;6.33;;;7.70;56.70;;;;;;4968596;28;20231;-53
2021/12/03 03:15:39;;;;;;;8.20;6.07;;;7.60;56.70;;;;;;4965833;28;20231;-50
2021/12/03 03:18:14;;;;;;;7.10;5.87;;;7.50;57.00;;;;;;4965372;28;20431;-52
2021/12/03 03:20:42;;;;;;;11.23;6.50;;;7.50;56.90;;;;;;4965845;28;20451;-50
2021/12/03 03:23:08;;;;;;;6.17;4.80;;;7.60;56.80;;;;;;4967337;28;20444;-53
2021/12/03 03:25:34;;;;;;;7.33;5.53;;;7.60;56.60;;;;;;4965016;28;20467;-49
2021/12/03 03:28:01;;;;;;;9.30;6.17;;;7.70;56.50;;;;;;4964672;28;20440;-51
2021/12/03 03:30:26;;;;;;;6.57;5.80;;;7.60;56.50;;;;;;4963311;28;20554;-51
2021/12/03 03:32:52;;;;;;;7.57;5.90;;;7.60;56.40;;;;;;4968855;28;20636;-51
2021/12/03 03:35:18;;;;;;;7.40;5.83;;;7.60;56.40;;;;;;4972112;28;20218;-49
2021/12/03 03:37:43;;;;;;;5.80;5.20;;;7.60;56.50;;;;;;4967779;28;20432;-49
2021/12/03 03:40:10;;;;;;;8.40;4.93;;;7.60;56.40;;;;;;4965030;28;20554;-49
2021/12/03 03:42:37;;;;;;;6.90;5.50;;;7.60;57.00;;;;;;4959967;28;20200;-50
2021/12/03 03:45:07;;;;;;;7.37;5.10;;;7.60;56.60;;;;;;4967397;28;20439;-50
2021/12/03 03:47:33;;;;;;;6.70;5.43;;;7.60;56.60;;;;;;4969461;28;20466;-50
2021/12/03 03:49:59;;;;;;;8.40;5.80;;;7.50;56.50;;;;;;4963462;28;20598;-50
2021/12/03 03:52:27;;;;;;;7.43;5.00;;;7.50;56.50;;;;;;4967699;28;20724;-49
2021/12/03 03:54:53;;;;;;;5.57;4.93;;;7.50;56.50;;;;;;4965866;28;20482;-49
2021/12/03 03:57:18;;;;;;;8.10;5.13;;;7.50;56.50;;;;;;4971575;28;20423;-49
2021/12/03 03:59:44;;;;;;;7.63;5.60;;;7.50;56.70;;;;;;4963658;28;20246;-50
2021/12/03 04:02:10;;;;;;;5.80;4.83;;;7.50;56.90;;;;;;4965021;28;20277;-49
2021/12/03 04:04:35;;;;;;;6.77;5.80;;;7.40;56.80;;;;;;4962246;28;20203;-53
2021/12/03 04:07:01;;;;;;;7.00;5.60;;;7.40;56.60;;;;;;4961503;28;20192;-49
2021/12/03 04:09:27;;;;;;;8.03;7.23;;;7.40;56.50;;;;;;4962828;28;20199;-50
2021/12/03 04:11:52;;;;;;;7.83;6.17;;;7.40;56.60;;;;;;4965344;28;20227;-51
2021/12/03 04:14:18;;;;;;;7.13;5.83;;;7.40;56.70;;;;;;4962450;28;20207;-51
2021/12/03 04:16:44;;;;;;;9.00;7.03;;;7.40;56.80;;;;;;4966090;28;20200;-50
2021/12/03 04:19:10;;;;;;;8.00;7.20;;;7.40;56.80;;;;;;4962719;28;20191;-50
2021/12/03 04:21:36;;;;;;;8.70;6.57;;;7.40;56.80;;;;;;4966395;28;20446;-49
2021/12/03 04:24:03;;;;;;;8.63;6.57;;;7.40;56.80;;;;;;4972766;28;20203;-53
2021/12/03 04:26:28;;;;;;;11.73;7.83;;;7.30;56.90;;;;;;4967501;28;20915;-51
2021/12/03 04:28:54;;;;;;;8.93;7.43;;;7.30;57.10;;;;;;4966217;28;20577;-52
2021/12/03 04:31:20;;;;;;;8.43;6.80;;;7.30;57.00;;;;;;4968811;28;20700;-49
2021/12/03 04:33:45;;;;;;;7.03;6.33;;;7.30;57.00;;;;;;4968984;28;20458;-49
2021/12/03 04:36:11;;;;;;;9.37;6.53;;;7.30;57.10;;;;;;4971513;28;20210;-49
2021/12/03 04:38:37;;;;;;;7.60;5.90;;;7.30;57.00;;;;;;4967919;28;20203;-49
2021/12/03 04:41:03;;;;;;;8.30;6.50;;;7.40;57.10;;;;;;4964675;28;20302;-50
2021/12/03 04:43:30;;;;;;;7.50;6.20;;;7.30;57.00;;;;;;4969094;28;20199;-50
2021/12/03 04:45:55;;;;;;;8.63;6.30;;;7.30;57.20;;;;;;4964829;28;20450;-49
2021/12/03 04:48:21;;;;;;;8.73;7.07;;;7.40;57.40;;;;;;4967569;28;20450;-50
2021/12/03 04:50:47;;;;;;;9.67;7.40;;;7.30;57.70;;;;;;4966666;28;20198;-49
2021/12/03 04:53:15;;;;;;;8.13;5.80;;;7.30;57.80;;;;;;4966408;28;20219;-50
2021/12/03 04:55:41;;;;;;;6.37;5.67;;;7.30;57.70;;;;;;4966617;28;20513;-49
2021/12/03 04:58:07;;;;;;;7.80;6.10;;;7.40;57.80;;;;;;4968403;28;20861;-51
2021/12/03 05:00:39;;;;;;;6.57;5.80;;;7.30;57.90;;;;;;4970976;28;20439;-50
2021/12/03 05:03:06;;;;;;;6.93;5.27;;;7.40;57.90;;;;;;4966187;28;20207;-49
2021/12/03 05:05:33;;;;;;;6.17;5.07;;;7.40;57.70;;;;;;4963370;28;20451;-49
2021/12/03 05:08:07;;;;;;;9.23;6.13;;;7.40;57.50;;;;;;4963444;28;20462;-50
2021/12/03 05:10:36;;;;;;;7.03;5.73;;;7.40;57.60;;;;;;4971506;28;20922;-49
2021/12/03 05:13:14;;;;;;;6.07;5.47;;;7.40;57.90;;;;;;4971430;28;21056;-50
2021/12/03 05:15:40;;;;;;;5.97;5.37;;;7.30;57.80;;;;;;4963931;28;20438;-50
2021/12/03 05:18:08;;;;;;;10.20;5.73;;;7.30;57.60;;;;;;4975471;28;20458;-50
2021/12/03 05:20:34;;;;;;;6.80;5.53;;;7.30;57.50;;;;;;4968533;28;20450;-49
2021/12/03 05:23:00;;;;;;;9.03;7.03;;;7.30;57.60;;;;;;4971269;28;20433;-49
2021/12/03 05:25:26;;;;;;;6.17;5.30;;;7.40;57.40;;;;;;4964205;28;20450;-50
2021/12/03 05:27:53;;;;;;;10.20;6.40;;;7.40;57.40;;;;;;4973980;28;20187;-50
2021/12/03 05:30:19;;;;;;;9.70;5.97;;;7.40;57.20;;;;;;4968470;28;20521;-49
2021/12/03 05:32:45;;;;;;;6.77;5.60;;;7.30;57.60;;;;;;4974837;28;20518;-49
2021/12/03 05:35:11;;;;;;;6.30;5.70;;;7.30;57.10;;;;;;4971356;28;20501;-52
2021/12/03 05:37:37;;;;;;;6.50;5.67;;;7.40;57.10;;;;;;4964225;28;20242;-51
2021/12/03 05:40:06;;;;;;;6.90;6.20;;;7.40;57.10;;;;;;4973555;28;20434;-50
2021/12/03 05:42:32;;;;;;;11.40;5.47;;;7.40;57.10;;;;;;4971633;28;20447;-50
2021/12/03 05:44:58;;;;;;;7.53;6.30;;;7.40;57.20;;;;;;4970082;28;20439;-49
2021/12/03 05:47:24;;;;;;;6.43;5.70;;;7.40;57.30;;;;;;4972989;28;20911;-49
2021/12/03 05:49:50;;;;;;;6.97;5.80;;;7.50;57.00;;;;;;4968167;28;20430;-49
2021/12/03 05:52:16;;;;;;;6.73;6.13;;;7.50;57.00;;;;;;4971935;28;20493;-49
2021/12/03 05:54:43;;;;;;;5.93;5.33;;;7.60;56.90;;;;;;4971932;28;20269;-49
2021/12/03 05:57:09;;;;;;;7.77;5.73;;;7.60;56.80;;;;;;4973951;28;20434;-49
2021/12/03 05:59:34;;;;;;;5.50;5.00;;;7.70;56.80;;;;;;4973139;28;20454;-49
2021/12/03 06:02:00;;;;;;;7.53;5.53;;;7.70;56.50;;;;;;4974038;28;20293;-49
2021/12/03 06:04:27;;;;;;;6.87;5.23;;;7.70;56.30;;;;;;4972299;28;20279;-51
2021/12/03 06:06:53;;;;;;;6.00;5.40;;;7.80;56.30;;;;;;4968357;28;20207;-50
2021/12/03 06:09:19;;;;;;;7.73;5.93;;;7.70;56.80;;;;;;4970690;28;20462;-50
2021/12/03 06:11:45;;;;;;;8.20;5.80;;;7.70;56.50;;;;;;4969820;28;20454;-50
2021/12/03 06:14:10;;;;;;;8.77;5.90;;;7.70;56.40;;;;;;4968638;28;20461;-49
2021/12/03 06:16:36;;;;;;;7.27;5.90;;;7.70;56.30;;;;;;4965924;28;20695;-50
2021/12/03 06:19:02;;;;;;;8.67;5.97;;;7.80;57.10;;;;;;4965054;28;20195;-51
2021/12/03 06:21:28;;;;;;;8.27;6.10;;;8.10;58.10;;;;;;4963797;28;20211;-51
2021/12/03 06:23:53;;;;;;;6.33;5.27;;;8.30;58.00;;;;;;4964647;28;20443;-51
2021/12/03 06:26:19;;;;;;;7.97;5.37;;;8.30;55.70;;;;;;4966913;28;20204;-50
2021/12/03 06:28:44;;;;;;;7.37;5.37;;;8.40;55.70;;;;;;4964316;28;20194;-50
2021/12/03 06:31:10;;;;;;;7.57;5.43;;;8.50;55.40;;;;;;4962596;28;20199;-50
2021/12/03 06:33:36;;;;;;;5.30;4.80;;;8.70;55.40;;;;;;4963156;28;20300;-49
2021/12/03 06:36:02;;;;;;;7.27;5.27;;;8.80;54.30;;;;;;4962699;28;20203;-52
2021/12/03 06:38:28;;;;;;;5.70;5.17;;;8.80;53.60;;;;;;4962833;28;20195;-50
2021/12/03 06:40:54;;;;;;;7.33;4.83;;;8.90;53.70;;;;;;4966388;28;20449;-49
2021/12/03 06:43:20;;;;;;;6.43;5.60;;;8.70;52.90;;;;;;4978141;28;20203;-50
2021/12/03 06:45:46;;;;;;;6.97;4.87;;;8.60;52.50;;;;;;4968981;28;20438;-49
2021/12/03 06:48:12;;;;;;;11.47;4.90;;;8.40;52.70;;;;;;4966513;28;20738;-49
2021/12/03 06:50:38;;;;;;;5.87;4.23;;;8.20;53.00;;;;;;4961969;28;20429;-49
2021/12/03 06:53:06;;;;;;;5.50;4.97;;;8.30;53.30;;;;;;4967624;28;20578;-50
2021/12/03 06:55:41;;;;;;;5.10;4.70;;;8.50;53.30;;;;;;4961465;28;20601;-53
2021/12/03 06:58:06;;;;;;;7.00;5.10;;;8.70;53.00;;;;;;4965182;28;20443;-51
2021/12/03 07:00:32;;;;;;;8.50;4.83;;;8.50;52.20;;;;;;4959937;28;20439;-49
2021/12/03 07:02:57;;;;;;;4.87;4.37;;;8.40;51.90;;;;;;4961549;28;20207;-50
2021/12/03 07:05:23;;;;;;;6.00;4.87;;;8.20;51.10;;;;;;4957403;28;20678;-52
2021/12/03 07:07:50;;;;;;;6.90;4.87;;;8.30;51.60;;;;;;4966037;28;20314;-49
2021/12/03 07:10:15;;;;;;;5.23;4.33;;;8.50;51.80;;;;;;4963896;28;20210;-50
2021/12/03 07:12:41;;;;;;;7.33;5.20;;;8.50;51.30;;;;;;4964320;28;20491;-50
2021/12/03 07:15:07;;;;;;;5.50;4.33;;;8.30;51.10;;;;;;4967664;28;20536;-52
2021/12/03 07:17:33;;;;;;;6.93;4.70;;;8.20;50.60;;;;;;4960841;28;20195;-49
2021/12/03 07:20:00;;;;;;;5.23;4.60;;;8.10;50.50;;;;;;4957570;28;20450;-49
2021/12/03 07:22:27;;;;;;;7.40;5.13;;;8.00;50.40;;;;;;4963891;28;20471;-50
2021/12/03 07:24:53;;;;;;;10.00;4.53;;;7.80;50.60;;;;;;4960955;28;20458;-49
2021/12/03 07:27:20;;;;;;;5.50;4.33;;;7.90;51.10;;;;;;4962571;28;20449;-51
2021/12/03 07:29:49;;;;;;;4.80;4.30;;;7.80;51.00;;;;;;4964284;28;20834;-49
2021/12/03 07:32:22;;;;;;;5.53;4.03;;;7.80;51.10;;;;;;4961366;28;20487;-49
2021/12/03 07:34:48;;;;;;;4.77;4.30;;;7.80;51.10;;;;;;4959628;28;20443;-49
2021/12/03 07:37:14;;;;;;;6.70;4.90;;;7.90;51.20;;;;;;4960084;28;20441;-49
2021/12/03 07:39:40;;;;;;;5.90;4.00;;;7.90;51.00;;;;;;4954503;28;20652;-49
2021/12/03 07:42:06;;;;;;;6.37;4.87;;;7.90;50.90;;;;;;4960376;28;20219;-49
2021/12/03 07:44:33;;;;;;;7.63;4.57;;;8.00;50.90;;;;;;4963664;28;20868;-49
2021/12/03 07:46:58;;;;;;;5.40;4.80;;;8.00;50.70;;;;;;4964501;28;20458;-52
2021/12/03 07:49:26;;;;;;;10.43;5.37;;;7.90;51.00;;;;;;4963381;28;20443;-49
2021/12/03 07:51:52;;;;;;;5.57;5.07;;;8.10;51.40;;;;;;4963059;28;20238;-50
2021/12/03 07:54:18;;;;;;;5.67;4.33;;;8.20;50.50;;;;;;4963857;28;20475;-50
2021/12/03 07:56:45;;;;;;;5.67;4.70;;;8.40;49.90;;;;;;4960188;28;20445;-49
2021/12/03 07:59:10;;;;;;;4.47;4.03;;;8.50;49.40;;;;;;4964748;28;20440;-49
2021/12/03 08:01:36;;;;;;;6.37;5.07;;;8.50;49.20;;;;;;4964328;28;20549;-48
2021/12/03 08:04:02;;;;;;;5.40;4.90;;;8.50;49.30;;;;;;4959369;28;20199;-49
2021/12/03 08:06:27;;;;;;;5.80;4.70;;;8.40;49.50;;;;;;4968857;28;20202;-49
2021/12/03 08:08:53;;;;;;;5.87;4.70;;;8.40;49.90;;;;;;4972152;28;20203;-48
2021/12/03 08:11:19;;;;;;;6.33;5.23;;;8.40;49.80;;;;;;4972324;28;20235;-52
2021/12/03 08:13:44;;;;;;;6.37;5.07;;;8.40;50.10;;;;;;4972738;28;20625;-51
2021/12/03 08:16:10;;;;;;;7.13;4.90;;;8.40;50.00;;;;;;4972526;28;20670;-53
2021/12/03 08:18:36;;;;;;;5.87;4.70;;;8.40;50.10;;;;;;4972446;28;20555;-54
2021/12/03 08:21:03;;;;;;;6.23;4.50;;;8.30;50.00;;;;;;4960019;28;20648;-53
2021/12/03 08:23:30;;;;;;;5.80;4.90;;;8.20;50.20;;;;;;4960009;28;20602;-53
2021/12/03 08:25:55;;;;;;;4.93;4.53;;;8.10;50.30;;;;;;4952642;28;20457;-49
2021/12/03 08:28:22;;;;;;;6.37;4.43;;;8.00;50.40;;;;;;4953537;28;20923;-52
2021/12/03 08:30:48;;;;;;;4.80;4.30;;;8.20;50.50;;;;;;4970376;28;20219;-49
2021/12/03 08:33:13;;;;;;;4.93;4.40;;;8.10;50.00;;;;;;4961030;28;20526;-53
2021/12/03 08:35:39;;;;;;;6.07;4.20;;;8.10;50.10;;;;;;4958674;28;20974;-52
2021/12/03 08:38:05;;;;;;;4.40;4.00;;;8.20;49.90;;;;;;4953478;28;20640;-53
2021/12/03 08:40:30;;;;;;;4.80;4.33;;;8.10;50.10;;;;;;4961437;28;20253;-51
2021/12/03 08:42:56;;;;;;;6.57;4.73;;;8.20;50.70;;;;;;4972537;28;20199;-52
2021/12/03 08:45:22;;;;;;;6.30;4.63;;;8.30;50.00;;;;;;4971926;28;20195;-51
2021/12/03 08:47:52;;;;;;;6.80;5.20;;;8.50;50.00;;;;;;4972631;28;20362;-49
2021/12/03 08:50:50;;;;;;;6.30;5.70;;;8.60;49.80;;;;;;4969689;28;20317;-52
2021/12/03 08:55:41;;;;;;;5.30;4.80;;;8.60;49.30;;;;;;4971209;28;20485;-49
2021/12/03 08:58:09;;;;;;;8.60;6.70;;;8.70;49.10;;;;;;4972593;28;20926;-50
2021/12/03 09:00:36;;;;;;;7.23;5.07;;;8.80;49.60;;;;;;4962447;28;20460;-50
2021/12/03 09:03:04;;;;;;;7.33;5.37;;;8.90;49.50;;;;;;4962655;28;20467;-51
2021/12/03 09:05:31;;;;;;;6.73;6.00;;;8.90;49.10;;;;;;4968107;28;20565;-53
2021/12/03 09:07:58;;;;;;;9.27;5.90;;;9.00;48.90;;;;;;4973168;28;20788;-49
2021/12/03 09:10:24;;;;;;;5.73;5.13;;;9.10;48.60;;;;;;4964759;28;20493;-49
2021/12/03 09:12:51;;;;;;;5.77;4.73;;;9.10;48.40;;;;;;4968531;28;20482;-53
2021/12/03 09:15:20;;;;;;;7.87;5.20;;;9.10;48.40;;;;;;4966227;28;20431;-50
2021/12/03 09:23:00;;;;;;;4.67;4.27;;;9.20;47.90;;;;;;4973104;28;20492;-54
2021/12/03 09:25:36;;;;;;;4.57;4.17;;;9.30;47.50;;;;;;4963170;28;20617;-51
2021/12/03 09:28:05;;;;;;;5.33;4.87;;;9.30;47.50;;;;;;4961107;28;20525;-54
2021/12/03 09:30:36;;;;;;;7.93;4.50;;;9.50;48.00;;;;;;4966785;28;20451;-53
2021/12/03 09:33:05;;;;;;;7.40;4.33;;;9.70;47.80;;;;;;4972058;28;20498;-49
2021/12/03 09:35:31;;;;;;;5.80;3.90;;;9.90;47.50;;;;;;4966839;28;20522;-49
2021/12/03 09:37:57;;;;;;;3.43;2.80;;;10.00;45.30;;;;;;4960294;28;20565;-49
2021/12/03 09:40:25;;;;;;;3.90;3.17;;;9.90;45.20;;;;;;4961913;28;20198;-47
2021/12/03 09:42:52;;;;;;;3.93;3.23;;;10.00;43.90;;;;;;4967989;28;20450;-50
2021/12/03 09:45:18;;;;;;;5.17;2.87;;;9.80;45.30;;;;;;4964571;28;20488;-48
2021/12/03 09:47:45;;;;;;;3.80;2.87;;;10.00;43.30;;;;;;4969020;28;21001;-48
2021/12/03 09:50:14;;;;;;;3.83;3.23;;;10.00;42.80;;;;;;4968269;28;20253;-53
2021/12/03 09:55:19;;;;;;;3.47;3.17;;;9.40;45.30;;;;;;4963356;28;21203;-49
2021/12/03 10:00:56;;;;;;;3.10;2.73;;;9.30;45.40;;;;;;4959601;28;21531;-49
2021/12/03 10:03:32;;;;;;;3.00;2.47;;;9.50;45.70;;;;;;4972792;28;20808;-48
2021/12/03 10:17:38;;;;;;;2.73;2.13;;;10.20;42.50;;;;;;4964601;28;20478;-48
2021/12/03 10:44:12;;;;;;;3.80;2.83;;;8.50;45.60;;;;;;4964463;28;20509;-48
2021/12/03 10:54:56;;;;;;;6.80;3.10;;;8.90;46.20;;;;;;4963637;28;20479;-48
2021/12/03 11:29:40;;;;;;;3.07;2.57;;;8.90;47.40;;;;;;4967322;28;20434;-51
2021/12/03 11:49:14;;;;;;;3.37;3.07;;;9.10;47.70;;;;;;4966524;28;20439;-50
2021/12/03 12:09:26;;;;;;;3.80;2.50;;;9.60;46.90;;;;;;4966280;28;20449;-49
2021/12/03 12:26:42;;;;;;;6.60;3.50;;;9.10;47.20;;;;;;4971348;28;20449;-51
2021/12/03 12:30:14;;;;;;;3.03;2.47;;;9.00;47.50;;;;;;4964183;28;20446;-48
2021/12/03 14:07:11;;;;;;;2.67;2.40;;;9.50;46.50;;;;;;4969563;28;20195;-49
2021/12/03 14:09:45;;;;;;;2.53;2.07;;;9.60;46.10;;;;;;4967055;28;20517;-47
2021/12/03 14:21:21;;;;;;;2.37;2.20;;;10.00;44.90;;;;;;4969307;28;20938;-47
2021/12/03 14:40:51;;;;;;;5.10;4.27;;;10.10;44.90;;;;;;4966109;28;20481;-47
2021/12/03 14:54:16;;;;;;;2.60;2.37;;;10.00;44.60;;;;;;4968161;28;20830;-49
2021/12/03 14:56:44;;;;;;;4.53;2.40;;;10.10;44.60;;;;;;4965226;28;20505;-51
2021/12/03 14:59:27;;;;;;;3.50;2.70;;;10.20;44.70;;;;;;4968636;28;20477;-48
2021/12/03 15:07:08;;;;;;;3.80;3.03;;;10.30;44.80;;;;;;4961813;28;20219;-52
2021/12/03 15:09:37;;;;;;;3.90;3.53;;;10.30;44.90;;;;;;4968712;28;20447;-51
2021/12/03 15:12:27;;;;;;;3.43;3.03;;;10.20;44.90;;;;;;4963178;28;20565;-50
2021/12/03 16:10:25;;;;;;;4.50;3.33;;;9.50;46.40;;;;;;4962390;28;20525;-46
2021/12/03 16:13:10;;;;;;;5.63;3.20;;;9.50;46.30;;;;;;4963932;28;20594;-48
2021/12/03 16:18:46;;;;;;;5.53;3.13;;;9.30;46.00;;;;;;4969626;28;20435;-49
2021/12/03 16:23:51;;;;;;;4.33;2.90;;;9.20;46.50;;;;;;4968138;28;20485;-49
2021/12/03 16:53:00;;;;;;;4.53;2.27;;;9.00;46.50;;;;;;4967962;28;20502;-48
2021/12/03 16:55:26;;;;;;;3.83;2.87;;;9.00;46.40;;;;;;4967928;28;20234;-49
2021/12/03 16:57:53;;;;;;;2.63;2.43;;;8.90;46.10;;;;;;4970978;28;20191;-46
2021/12/03 17:00:41;;;;;;;4.70;2.67;;;8.80;46.40;;;;;;4964281;28;20206;-47
2021/12/03 17:08:54;;;;;;;5.20;2.73;;;8.90;46.20;;;;;;4960334;28;20449;-50
2021/12/03 17:30:29;;;;;;;6.60;3.27;;;8.60;46.80;;;;;;4968946;28;20457;-48
2021/12/03 17:47:08;;;;;;;6.63;3.70;;;8.50;47.30;;;;;;4967665;28;20870;-51
2021/12/03 17:57:07;;;;;;;4.50;3.30;;;8.30;46.30;;;;;;4970196;28;20430;-49
2021/12/03 17:59:44;;;;;;;4.37;3.23;;;8.30;46.80;;;;;;4965254;28;20592;-48
2021/12/03 18:13:14;;;;;;;5.07;3.10;;;7.90;46.80;;;;;;4964394;28;20497;-52
2021/12/03 18:19:05;;;;;;;5.00;3.87;;;7.90;46.80;;;;;;4969535;28;20486;-53
2021/12/03 18:58:51;;;;;;;6.70;3.30;;;8.50;46.40;;;;;;4965129;28;20493;-50
2021/12/03 19:01:16;;;;;;;3.47;2.93;;;8.30;46.10;;;;;;4961051;28;21146;-48
2021/12/03 19:06:25;;;;;;;5.50;3.80;;;7.90;46.90;;;;;;4966344;28;20195;-48
2021/12/03 19:11:35;;;;;;;7.47;3.57;;;7.70;47.50;;;;;;4966840;28;20545;-48
2021/12/03 19:14:02;;;;;;;5.80;4.17;;;7.70;47.00;;;;;;4961574;28;20215;-50
2021/12/03 19:16:28;;;;;;;4.30;3.17;;;7.60;46.70;;;;;;4961618;28;20450;-49
2021/12/03 19:18:57;;;;;;;5.30;3.57;;;7.50;47.00;;;;;;4966489;28;21283;-51
2021/12/03 19:21:26;;;;;;;7.63;3.47;;;7.50;47.60;;;;;;4963170;28;20438;-49
2021/12/03 19:23:55;;;;;;;4.40;3.60;;;7.70;47.50;;;;;;4968003;28;20530;-50
2021/12/03 19:26:21;;;;;;;3.97;3.27;;;7.70;47.20;;;;;;4964255;28;20439;-49
2021/12/03 19:28:49;;;;;;;4.07;3.67;;;7.50;47.40;;;;;;4964310;28;20525;-49
2021/12/03 19:31:15;;;;;;;4.00;3.70;;;7.50;48.00;;;;;;4967151;28;20463;-48
2021/12/03 19:33:40;;;;;;;4.93;3.80;;;7.70;47.90;;;;;;4968839;28;21263;-50
2021/12/03 19:36:06;;;;;;;4.03;3.10;;;7.70;47.30;;;;;;4966204;28;20439;-48
2021/12/03 19:38:35;;;;;;;5.10;3.70;;;7.60;46.90;;;;;;4967482;28;20202;-49
2021/12/03 19:41:08;;;;;;;4.93;3.50;;;7.70;47.20;;;;;;4965519;28;20214;-48
2021/12/03 19:43:37;;;;;;;6.03;3.63;;;7.60;47.30;;;;;;4962128;28;20912;-49
2021/12/03 19:46:05;;;;;;;5.40;3.50;;;7.70;47.40;;;;;;4963059;28;21043;-49
2021/12/03 19:48:37;;;;;;;4.37;3.37;;;8.00;47.00;;;;;;4964087;28;20518;-50
2021/12/03 19:51:12;;;;;;;4.17;3.60;;;8.10;46.30;;;;;;4962842;28;20439;-49
2021/12/03 19:53:43;;;;;;;4.13;3.73;;;8.30;45.90;;;;;;4966103;28;20492;-48
2021/12/03 19:56:09;;;;;;;4.63;3.90;;;8.20;45.80;;;;;;4964857;28;21281;-48
2021/12/03 19:58:35;;;;;;;4.87;3.80;;;8.20;46.00;;;;;;4966156;28;20431;-48
2021/12/03 20:01:01;;;;;;;3.93;3.53;;;8.30;46.00;;;;;;4968933;28;20473;-47
2021/12/03 20:03:26;;;;;;;7.17;4.00;;;8.10;45.70;;;;;;4966486;28;20222;-48
2021/12/03 20:05:53;;;;;;;4.40;4.00;;;7.70;46.30;;;;;;4968354;28;20214;-48
2021/12/03 20:08:20;;;;;;;6.40;4.70;;;7.50;47.20;;;;;;4969273;28;20200;-48
2021/12/03 20:10:48;;;;;;;6.40;5.23;;;7.40;47.10;;;;;;4966875;28;20447;-48
2021/12/03 20:13:14;;;;;;;5.70;4.03;;;7.30;47.70;;;;;;4965485;28;20573;-48
2021/12/03 20:16:11;;;;;;;4.83;3.97;;;7.40;47.40;;;;;;4962883;28;20531;-48
2021/12/03 20:18:35;;;;;;;5.37;3.70;;;7.60;47.30;;;;;;4959930;28;20211;-47
2021/12/03 20:21:01;;;;;;;4.40;3.47;;;7.70;46.70;;;;;;4966172;28;20450;-48
2021/12/03 20:28:47;;;;;;;5.87;4.00;;;7.50;46.80;;;;;;4965842;28;20540;-48
2021/12/03 20:31:16;;;;;;;4.17;3.73;;;7.60;47.30;;;;;;4967400;28;20443;-48
2021/12/03 20:38:55;;;;;;;4.23;3.80;;;7.20;46.70;;;;;;4970245;28;20435;-49
2021/12/03 20:47:22;;;;;;;4.80;3.87;;;7.30;46.50;;;;;;4956580;28;20458;-49
2021/12/03 21:09:38;;;;;;;2.97;2.67;;;8.20;44.50;;;;;;4971128;28;21136;-49
2021/12/03 21:12:10;;;;;;;4.90;3.53;;;8.20;45.10;;;;;;4964669;28;20959;-48
2021/12/03 21:14:38;;;;;;;4.77;3.00;;;8.10;45.30;;;;;;4965944;28;20566;-48
2021/12/03 21:17:32;;;;;;;6.80;2.90;;;8.10;44.70;;;;;;4965340;28;20931;-48
2021/12/03 21:20:34;;;;;;;4.47;3.30;;;8.20;44.40;;;;;;4964084;28;20451;-52